< Typhoon 198715 1987 Season Typhoon 198717 >
Typhoon 198716 (IAN)
General InformationTrack Information on Google MapsDetailed Wind InformationList of All Images || NewsDisaster Info.ResourceGoogle EarthGE AnimationAtom FeedGeoJSON
Detalied Best Track (Time Zone = UTC)
Year Month Day Hour Lat. Long. Pressure (hPa) Wind (kt) Class Image Chart
1987 9 23 00 16.0 146.5 1008 0 2 Image Chart
1987 9 23 06 16.2 146.3 1006 0 2 Image Chart
1987 9 23 12 16.4 146.1 1004 0 2 Image Chart
1987 9 23 18 16.6 146.0 1002 35 3 Image Chart
1987 9 24 00 16.8 145.8 1000 35 3 Image Chart
1987 9 24 06 17.1 145.6 996 40 3 Image Chart
1987 9 24 12 17.4 145.0 992 40 3 Image Chart
1987 9 24 18 17.7 144.3 985 40 3 Image Chart
1987 9 25 00 18.1 143.4 975 55 4 Image Chart
1987 9 25 06 18.7 142.7 970 65 5 Image Chart
1987 9 25 12 19.3 142.1 965 70 5 Image Chart
1987 9 25 18 20.0 141.5 960 75 5 Image Chart
1987 9 26 00 20.7 140.9 955 75 5 Image Chart
1987 9 26 06 21.4 140.3 955 75 5 Image Chart
1987 9 26 12 22.1 139.7 955 75 5 Image Chart
1987 9 26 18 22.7 139.2 955 75 5 Image Chart
1987 9 27 00 23.1 138.6 955 75 5 Image Chart
1987 9 27 06 23.3 138.1 955 75 5 Image Chart
1987 9 27 12 23.3 137.9 955 75 5 Image Chart
1987 9 27 18 23.4 138.0 960 75 5 Image Chart
1987 9 28 00 23.5 138.0 960 75 5 Image Chart
1987 9 28 06 23.5 138.1 960 70 5 Image Chart
1987 9 28 12 23.6 138.2 960 70 5 Image Chart
1987 9 28 18 23.5 138.2 960 70 5 Image Chart
1987 9 29 00 23.6 138.3 965 70 5 Image Chart
1987 9 29 06 23.8 137.9 965 70 5 Image Chart
1987 9 29 12 24.0 137.5 965 70 5 Image Chart
1987 9 29 18 24.1 137.3 970 65 5 Image Chart
1987 9 30 00 24.2 137.1 975 60 4 Image Chart
1987 9 30 06 24.3 137.0 975 60 4 Image Chart
1987 9 30 12 24.6 137.1 980 55 4 Image Chart
1987 9 30 18 25.3 137.2 980 55 4 Image Chart
1987 10 1 00 26.0 138.1 980 55 4 Image Chart
1987 10 1 06 26.9 138.5 985 55 4 Image Chart
1987 10 1 12 27.2 139.2 985 55 4 Image Chart
1987 10 1 18 27.9 140.2 990 55 4 Image Chart
1987 10 2 00 28.9 141.4 992 45 3 Image Chart
1987 10 2 06 29.8 142.2 992 45 3 Image Chart
1987 10 2 12 30.3 144.4 992 45 3 Image Chart
1987 10 2 18 31.1 146.4 992 40 3 Image Chart
1987 10 3 00 32.2 148.2 992 45 3 Image Chart
1987 10 3 06 33.1 150.4 992 45 3 Image Chart
1987 10 3 12 34.0 153.0 992 40 3 Image Chart
1987 10 3 18 35.5 155.5 992 40 3 Image Chart
1987 10 4 00 37.0 158.0 994 40 3 Image Chart
1987 10 4 06 38.5 160.5 994 40 3 Image Chart
1987 10 4 12 40.5 164.0 996 0 6 Image Chart
1987 10 4 18 43.0 167.0 994 0 6 Image Chart
1987 10 5 00 46.0 170.0 990 0 6 Image Chart
1987 10 5 06 49.0 172.0 986 0 6 Image Chart
1987 10 5 12 52.0 173.0 984 0 6 Image Chart
1987 10 5 18 54.0 175.0 980 0 6 Image Chart
1987 10 6 00 54.0 176.0 976 0 6 Image Chart
1987 10 6 06 53.5 177.0 976 0 6 Image Chart
1987 10 6 12 53.0 178.5 978 0 6 Image Chart
Japan Meteorological Agency Best Track Data | Correction Date : 1992-10-21
< Typhoon 198715 1987 Season Typhoon 198717 >

Help